Time;durP1;ratioP1;P1;durP2;ratioP2;P2;SDS_P1;SDS_P2;PMS_P1;PMS_P2;Temp;Humidity;BMP_temperature;BMP_pressure;BME280_temperature;BME280_humidity;BME280_pressure;Samples;Min_cycle;Max_cycle;Signal;HPM_P1;HPM_P2
2022/05/14 00:01:11;;;;;;;6.65;2.70;;;12.40;99.90;;;;;;4824047;29;20054;-73
2022/05/14 00:03:39;;;;;;;11.65;3.53;;;12.40;99.90;;;;;;4829349;29;20054;-73
2022/05/14 00:06:12;;;;;;;11.07;3.35;;;12.30;99.90;;;;;;4832021;29;20667;-73
2022/05/14 00:08:38;;;;;;;8.90;2.63;;;12.30;99.90;;;;;;4828577;29;20484;-73
2022/05/14 00:13:50;;;;;;;8.93;2.65;;;12.40;99.90;;;;;;4827165;29;20101;-73
2022/05/14 00:16:17;;;;;;;4.80;2.45;;;12.30;99.90;;;;;;4826123;29;20066;-73
2022/05/14 00:18:43;;;;;;;4.53;2.20;;;12.30;99.90;;;;;;4827134;29;20081;-73
2022/05/14 00:21:10;;;;;;;5.97;3.08;;;12.30;99.90;;;;;;4827036;29;20069;-74
2022/05/14 00:23:36;;;;;;;7.20;3.10;;;12.30;99.90;;;;;;4826693;29;20046;-74
2022/05/14 00:26:02;;;;;;;7.97;2.58;;;12.20;99.90;;;;;;4826190;29;20061;-74
2022/05/14 00:28:27;;;;;;;8.20;3.05;;;12.30;99.90;;;;;;4828059;29;20373;-74
2022/05/14 00:30:54;;;;;;;8.00;2.80;;;12.20;99.90;;;;;;4827206;29;20046;-73
2022/05/14 00:33:20;;;;;;;6.35;2.72;;;12.20;99.90;;;;;;4827192;29;20046;-73
2022/05/14 00:35:46;;;;;;;7.30;2.95;;;12.20;99.90;;;;;;4827086;29;20114;-74
2022/05/14 00:38:13;;;;;;;9.85;3.08;;;12.10;99.90;;;;;;4827924;29;20403;-73
2022/05/14 00:40:46;;;;;;;9.60;3.15;;;12.10;99.90;;;;;;4827104;29;20129;-74
2022/05/14 00:43:13;;;;;;;6.95;2.70;;;12.10;99.90;;;;;;4827284;29;20085;-73
2022/05/14 00:45:43;;;;;;;8.27;2.30;;;12.20;99.90;;;;;;4826432;29;20396;-73
2022/05/14 00:48:11;;;;;;;8.15;2.65;;;12.00;99.90;;;;;;4826975;29;20060;-73
2022/05/14 00:50:44;;;;;;;8.43;3.22;;;12.00;99.90;;;;;;4826956;29;20190;-74
2022/05/14 00:53:35;;;;;;;6.10;2.63;;;12.00;99.90;;;;;;4825566;29;20086;-73
2022/05/14 00:56:11;;;;;;;8.23;2.83;;;12.00;99.90;;;;;;4821242;29;20191;-74
2022/05/14 00:58:49;;;;;;;8.73;3.42;;;11.90;99.90;;;;;;4825742;29;20061;-74
2022/05/14 01:01:15;;;;;;;8.60;3.35;;;11.90;99.90;;;;;;4827607;29;20050;-73
2022/05/14 01:03:41;;;;;;;8.98;3.38;;;11.90;99.90;;;;;;4825613;29;20099;-73
2022/05/14 01:06:11;;;;;;;5.72;2.67;;;11.90;99.90;;;;;;4826787;29;20422;-73
2022/05/14 01:08:37;;;;;;;8.30;2.80;;;11.80;99.90;;;;;;4826437;29;20514;-73
2022/05/14 01:11:03;;;;;;;9.63;3.15;;;11.80;99.90;;;;;;4826593;29;20046;-73
2022/05/14 01:13:31;;;;;;;9.20;2.97;;;12.00;99.90;;;;;;4809479;29;20066;-73
2022/05/14 01:16:00;;;;;;;7.95;2.80;;;11.80;99.90;;;;;;4826438;29;20053;-73
2022/05/14 01:18:27;;;;;;;8.73;3.33;;;11.80;99.90;;;;;;4826531;29;20058;-73
2022/05/14 01:21:52;;;;;;;6.57;2.80;;;11.90;99.90;;;;;;4826700;29;20054;-74
2022/05/14 01:27:24;;;;;;;7.88;2.80;;;11.80;99.90;;;;;;4826521;29;20062;-73
2022/05/14 01:29:50;;;;;;;12.02;3.28;;;11.80;99.90;;;;;;4826318;29;20054;-74
2022/05/14 01:32:16;;;;;;;9.70;3.50;;;11.80;99.90;;;;;;4826318;29;20412;-74
2022/05/14 01:34:43;;;;;;;5.85;2.70;;;11.70;99.90;;;;;;4827031;29;20469;-73
2022/05/14 01:37:10;;;;;;;10.73;3.20;;;11.80;99.90;;;;;;4826044;29;20066;-73
2022/05/14 01:39:36;;;;;;;8.82;3.20;;;11.70;99.90;;;;;;4826292;29;20523;-73
2022/05/14 01:42:03;;;;;;;9.20;2.97;;;11.80;99.90;;;;;;4826088;29;20512;-72
2022/05/14 01:44:29;;;;;;;8.52;3.60;;;11.80;99.90;;;;;;4825388;29;20070;-73
2022/05/14 01:46:55;;;;;;;5.95;3.15;;;11.70;99.90;;;;;;4826065;29;20042;-73
2022/05/14 01:49:21;;;;;;;6.72;3.05;;;11.70;99.90;;;;;;4826834;29;20051;-73
2022/05/14 01:51:47;;;;;;;8.88;3.10;;;11.70;99.90;;;;;;4826160;29;20085;-72
2022/05/14 01:54:13;;;;;;;8.98;2.92;;;12.10;99.90;;;;;;4825912;29;20050;-73
2022/05/14 01:56:39;;;;;;;7.68;3.22;;;11.70;99.90;;;;;;4826439;29;20199;-73
2022/05/14 01:59:05;;;;;;;8.73;4.20;;;11.70;99.90;;;;;;4825748;29;20133;-74
2022/05/14 02:01:34;;;;;;;8.65;3.97;;;11.70;99.90;;;;;;4825867;29;20050;-73
2022/05/14 02:04:06;;;;;;;10.98;3.55;;;11.60;99.90;;;;;;4826625;29;20051;-73
2022/05/14 02:06:33;;;;;;;10.18;3.90;;;11.60;99.90;;;;;;4825544;29;20464;-73
2022/05/14 02:08:59;;;;;;;10.50;3.90;;;11.60;99.90;;;;;;4825793;29;20520;-74
2022/05/14 02:11:27;;;;;;;12.35;4.60;;;11.60;99.90;;;;;;4824447;29;20458;-73
2022/05/14 02:13:54;;;;;;;11.18;5.22;;;11.60;99.90;;;;;;4825651;29;20369;-73
2022/05/14 02:16:21;;;;;;;13.35;4.45;;;11.60;99.90;;;;;;4825355;29;20516;-74
2022/05/14 02:18:47;;;;;;;10.48;4.28;;;11.70;99.90;;;;;;4826400;29;20101;-73
2022/05/14 02:21:14;;;;;;;13.50;4.80;;;11.80;99.90;;;;;;4825552;29;20050;-73
2022/05/14 02:23:40;;;;;;;13.13;4.55;;;11.80;99.90;;;;;;4824598;29;20130;-73
2022/05/14 02:26:09;;;;;;;10.75;4.10;;;11.70;99.90;;;;;;4825245;29;20050;-73
2022/05/14 02:28:36;;;;;;;10.07;4.82;;;11.70;99.90;;;;;;4825537;29;20046;-73
2022/05/14 02:31:02;;;;;;;15.38;5.25;;;11.80;99.90;;;;;;4824490;29;20081;-72
2022/05/14 02:33:29;;;;;;;14.10;4.85;;;11.70;99.90;;;;;;4825352;29;20053;-72
2022/05/14 02:35:56;;;;;;;13.13;4.82;;;11.70;99.90;;;;;;4825185;29;20534;-72
2022/05/14 02:38:22;;;;;;;13.50;5.32;;;11.70;99.90;;;;;;4825363;29;20098;-74
2022/05/14 02:40:48;;;;;;;15.98;5.18;;;11.70;99.90;;;;;;4825249;29;20089;-73
2022/05/14 02:43:13;;;;;;;15.18;5.45;;;11.70;99.90;;;;;;4825805;29;20046;-72
2022/05/14 02:45:39;;;;;;;13.38;5.72;;;11.70;99.90;;;;;;4825273;29;20046;-73
2022/05/14 02:48:05;;;;;;;10.90;4.82;;;11.70;99.90;;;;;;4824806;29;20050;-72
2022/05/14 02:50:32;;;;;;;13.82;4.78;;;11.60;99.90;;;;;;4809063;29;20555;-73
2022/05/14 02:52:59;;;;;;;13.85;5.10;;;11.60;99.90;;;;;;4825044;29;20050;-74
2022/05/14 02:55:24;;;;;;;12.07;4.95;;;11.50;99.90;;;;;;4824198;29;20054;-73
2022/05/14 02:57:50;;;;;;;16.73;5.00;;;11.50;99.90;;;;;;4825150;29;20054;-73
2022/05/14 03:00:18;;;;;;;13.27;5.47;;;11.40;99.90;;;;;;4826162;29;20046;-74
2022/05/14 03:02:45;;;;;;;10.70;4.70;;;11.40;99.90;;;;;;4825283;29;20046;-72
2022/05/14 03:05:13;;;;;;;15.57;5.22;;;11.30;99.90;;;;;;4824767;29;20483;-73
2022/05/14 03:07:40;;;;;;;12.60;5.13;;;11.30;99.90;;;;;;4825386;29;20063;-73
2022/05/14 03:10:07;;;;;;;18.40;5.68;;;11.20;99.90;;;;;;4825910;29;20492;-73
2022/05/14 03:12:33;;;;;;;14.57;5.80;;;11.20;99.90;;;;;;4824231;29;20488;-73
2022/05/14 03:14:59;;;;;;;13.02;4.82;;;11.40;99.90;;;;;;4824992;29;20065;-74
2022/05/14 03:17:25;;;;;;;16.23;5.95;;;11.20;99.90;;;;;;4824833;29;20054;-74
2022/05/14 03:19:51;;;;;;;12.75;5.10;;;11.20;99.90;;;;;;4823944;29;20369;-74
2022/05/14 03:22:17;;;;;;;15.60;5.60;;;11.20;99.90;;;;;;4823907;29;20050;-74
2022/05/14 03:24:42;;;;;;;14.15;5.45;;;11.10;99.90;;;;;;4823636;29;20055;-74
2022/05/14 03:27:10;;;;;;;12.75;5.60;;;11.10;99.90;;;;;;4824785;29;20118;-74
2022/05/14 03:29:36;;;;;;;14.00;5.75;;;11.10;99.90;;;;;;4824084;29;20054;-74
2022/05/14 03:32:02;;;;;;;12.70;5.18;;;11.10;99.90;;;;;;4824816;29;20055;-73
2022/05/14 03:34:28;;;;;;;17.00;5.85;;;11.00;99.90;;;;;;4824565;29;20395;-74
2022/05/14 03:36:54;;;;;;;17.48;6.25;;;11.10;99.90;;;;;;4824976;29;20054;-73
2022/05/14 03:39:20;;;;;;;18.48;6.05;;;10.80;99.90;;;;;;4828306;29;20111;-74
2022/05/14 03:41:46;;;;;;;18.42;5.78;;;10.90;99.90;;;;;;4827863;29;20056;-74
2022/05/14 03:44:12;;;;;;;15.18;6.20;;;11.20;99.90;;;;;;4827936;29;20073;-75
2022/05/14 03:46:38;;;;;;;15.48;5.70;;;10.80;99.90;;;;;;4828577;29;20047;-74
2022/05/14 03:49:04;;;;;;;20.92;6.90;;;10.90;99.90;;;;;;4828796;29;20057;-73
2022/05/14 03:51:30;;;;;;;15.95;6.18;;;10.80;99.90;;;;;;4828065;29;20111;-74
2022/05/14 03:53:57;;;;;;;17.00;6.78;;;10.90;99.90;;;;;;4828633;29;20129;-74
2022/05/14 03:56:23;;;;;;;15.90;6.90;;;11.00;99.90;;;;;;4827894;29;20050;-74
2022/05/14 03:58:49;;;;;;;22.85;7.15;;;10.80;99.90;;;;;;4827751;29;20427;-74
2022/05/14 04:01:15;;;;;;;16.85;6.38;;;10.90;99.90;;;;;;4828536;29;20054;-74
2022/05/14 04:03:41;;;;;;;17.92;6.70;;;10.80;99.90;;;;;;4826600;29;20126;-73
2022/05/14 04:06:07;;;;;;;18.17;7.05;;;11.00;99.90;;;;;;4826765;29;20061;-74
2022/05/14 04:08:33;;;;;;;18.73;7.00;;;10.80;99.90;;;;;;4826702;29;20046;-74
2022/05/14 04:10:59;;;;;;;18.92;6.28;;;10.80;99.90;;;;;;4827316;29;20495;-74
2022/05/14 04:13:26;;;;;;;15.90;6.85;;;10.90;99.90;;;;;;4827471;29;20480;-73
2022/05/14 04:15:52;;;;;;;15.73;7.05;;;11.10;99.90;;;;;;4826379;29;20062;-73
2022/05/14 04:18:24;;;;;;;22.48;7.38;;;10.70;99.90;;;;;;4826741;29;20047;-72
2022/05/14 04:20:54;;;;;;;21.05;8.30;;;10.70;99.90;;;;;;4826838;29;20050;-73
2022/05/14 04:23:20;;;;;;;15.45;6.68;;;10.70;99.90;;;;;;4827965;29;20111;-73
2022/05/14 04:25:49;;;;;;;17.67;6.50;;;10.70;99.90;;;;;;4827869;29;20056;-74
2022/05/14 04:28:16;;;;;;;17.13;7.50;;;10.70;99.90;;;;;;4826168;29;20106;-74
2022/05/14 04:30:41;;;;;;;18.92;6.78;;;10.70;99.90;;;;;;4827831;29;20093;-74
2022/05/14 04:33:07;;;;;;;20.38;6.82;;;10.70;99.90;;;;;;4827212;29;20482;-73
2022/05/14 04:35:33;;;;;;;20.25;7.20;;;10.80;99.90;;;;;;4827227;29;20054;-72
2022/05/14 04:37:59;;;;;;;21.73;7.60;;;10.80;99.90;;;;;;4825744;29;20102;-73
2022/05/14 04:40:24;;;;;;;21.58;8.15;;;10.90;99.90;;;;;;4827208;29;20058;-73
2022/05/14 04:42:50;;;;;;;22.90;7.30;;;11.00;99.90;;;;;;4826954;29;20049;-73
2022/05/14 04:45:16;;;;;;;22.10;8.27;;;11.00;99.90;;;;;;4827399;29;20054;-73
2022/05/14 04:47:42;;;;;;;23.55;7.18;;;11.00;99.90;;;;;;4826143;29;20054;-71
2022/05/14 04:50:09;;;;;;;21.17;7.47;;;11.00;99.90;;;;;;4826949;29;20133;-73
2022/05/14 04:52:35;;;;;;;19.27;7.10;;;11.10;99.90;;;;;;4826585;29;20507;-73
2022/05/14 04:55:00;;;;;;;25.83;8.65;;;11.10;99.90;;;;;;4826863;29;20079;-73
2022/05/14 04:57:26;;;;;;;26.27;8.88;;;11.10;99.90;;;;;;4827609;29;20054;-73
2022/05/14 04:59:53;;;;;;;23.27;7.55;;;11.20;99.90;;;;;;4810667;29;20506;-73
2022/05/14 05:05:05;;;;;;;18.83;7.10;;;11.20;99.90;;;;;;4827577;29;20162;-74
2022/05/14 05:07:31;;;;;;;21.80;7.05;;;11.30;99.90;;;;;;4826409;29;20547;-73
2022/05/14 05:09:57;;;;;;;24.42;8.00;;;11.40;99.90;;;;;;4825572;29;20050;-73
2022/05/14 05:12:22;;;;;;;24.65;7.13;;;11.50;99.90;;;;;;4826534;29;20558;-74
2022/05/14 05:14:48;;;;;;;21.02;7.32;;;11.50;99.90;;;;;;4825456;29;20054;-73
2022/05/14 05:17:14;;;;;;;21.33;7.85;;;11.60;99.90;;;;;;4826572;29;20058;-73
2022/05/14 05:19:39;;;;;;;18.27;7.95;;;11.70;99.90;;;;;;4825541;29;20058;-73
2022/05/14 05:22:05;;;;;;;15.80;7.32;;;11.70;99.90;;;;;;4826192;29;20054;-73
2022/05/14 05:24:32;;;;;;;22.02;7.78;;;11.80;99.90;;;;;;4826461;29;20562;-74
2022/05/14 05:26:57;;;;;;;18.67;6.35;;;11.90;99.90;;;;;;4825460;29;20137;-73
2022/05/14 05:29:23;;;;;;;19.38;6.75;;;12.10;99.90;;;;;;4825227;29;20133;-73
2022/05/14 05:31:49;;;;;;;21.17;7.20;;;12.00;99.90;;;;;;4826286;29;20062;-74
2022/05/14 05:34:14;;;;;;;21.35;7.43;;;12.00;99.90;;;;;;4826242;29;20514;-73
2022/05/14 05:36:40;;;;;;;24.27;7.00;;;12.10;99.90;;;;;;4826775;29;20090;-73
2022/05/14 05:39:06;;;;;;;22.05;6.90;;;12.20;99.90;;;;;;4825924;29;20065;-72
2022/05/14 05:41:32;;;;;;;16.42;6.35;;;12.20;99.90;;;;;;4825540;29;20054;-71
2022/05/14 05:43:57;;;;;;;19.60;7.35;;;12.30;99.90;;;;;;4826010;29;20067;-72
2022/05/14 05:46:23;;;;;;;18.63;6.75;;;12.30;99.90;;;;;;4824916;29;20543;-71
2022/05/14 05:48:49;;;;;;;16.75;5.97;;;12.40;99.90;;;;;;4826324;29;20061;-72
2022/05/14 05:51:14;;;;;;;18.23;6.35;;;12.40;99.90;;;;;;4824843;29;20058;-72
2022/05/14 05:59:09;;;;;;;19.40;7.30;;;12.60;99.90;;;;;;4826415;29;20054;-72
2022/05/14 06:01:35;;;;;;;21.42;7.18;;;12.50;99.90;;;;;;4825311;29;20049;-73
2022/05/14 06:04:01;;;;;;;16.95;6.47;;;12.60;99.90;;;;;;4825852;29;20094;-72
2022/05/14 06:06:27;;;;;;;16.27;6.60;;;12.70;99.90;;;;;;4825769;29;20121;-73
2022/05/14 06:08:54;;;;;;;19.52;6.40;;;12.70;99.90;;;;;;4826009;29;20078;-72
2022/05/14 06:11:20;;;;;;;17.80;5.97;;;12.80;99.90;;;;;;4809627;29;20061;-73
2022/05/14 06:13:47;;;;;;;20.65;6.03;;;12.80;99.90;;;;;;4826338;29;20125;-73
2022/05/14 06:16:14;;;;;;;18.92;5.45;;;12.90;99.90;;;;;;4825660;29;20058;-73
2022/05/14 06:18:42;;;;;;;18.55;5.15;;;12.90;99.90;;;;;;4824983;29;20050;-73
2022/05/14 06:21:09;;;;;;;20.13;5.93;;;13.00;99.90;;;;;;4825321;29;20491;-73
2022/05/14 06:23:35;;;;;;;18.45;5.18;;;13.00;99.90;;;;;;4825586;29;20046;-73
2022/05/14 06:26:01;;;;;;;15.82;4.78;;;13.10;99.90;;;;;;4825496;29;20406;-73
2022/05/14 06:28:27;;;;;;;11.25;4.50;;;13.10;99.90;;;;;;4825486;29;20095;-73
2022/05/14 06:30:53;;;;;;;18.50;4.45;;;13.20;99.90;;;;;;4824271;29;20178;-73
2022/05/14 06:33:19;;;;;;;19.95;4.65;;;13.30;99.90;;;;;;4825413;29;20050;-74
2022/05/14 06:35:46;;;;;;;18.42;4.80;;;13.30;99.90;;;;;;4825916;29;20054;-73
2022/05/14 06:38:12;;;;;;;18.67;5.15;;;13.40;99.90;;;;;;4825369;29;20410;-73
2022/05/14 06:40:39;;;;;;;13.80;4.20;;;13.40;99.90;;;;;;4825278;29;20054;-73
2022/05/14 06:43:04;;;;;;;16.75;3.88;;;13.40;99.90;;;;;;4825058;29;20129;-74
2022/05/14 06:45:30;;;;;;;13.98;3.80;;;13.50;99.90;;;;;;4825886;29;20454;-73
2022/05/14 06:47:57;;;;;;;15.45;4.22;;;13.50;99.90;;;;;;4824085;29;20054;-74
2022/05/14 06:50:24;;;;;;;11.27;3.42;;;13.50;99.90;;;;;;4825194;29;20046;-75
2022/05/14 06:52:54;;;;;;;15.98;3.58;;;13.70;99.90;;;;;;4824324;29;20495;-74
2022/05/14 06:55:24;;;;;;;16.10;3.80;;;13.60;99.90;;;;;;4825080;29;20134;-74
2022/05/14 06:57:51;;;;;;;12.10;3.65;;;13.70;99.90;;;;;;4825126;29;20055;-74
2022/05/14 07:00:18;;;;;;;14.57;3.33;;;13.70;99.90;;;;;;4825216;29;20107;-75
2022/05/14 07:02:45;;;;;;;11.55;3.35;;;13.70;99.90;;;;;;4825217;29;20442;-74
2022/05/14 07:07:55;;;;;;;15.20;3.65;;;13.80;99.90;;;;;;4825622;29;20158;-74
2022/05/14 07:10:21;;;;;;;12.35;3.13;;;13.80;99.90;;;;;;4825840;29;20447;-75
2022/05/14 07:12:49;;;;;;;14.50;3.90;;;13.90;99.90;;;;;;4824032;29;20542;-75
2022/05/14 07:15:15;;;;;;;14.63;3.22;;;14.00;99.90;;;;;;4823941;29;20055;-75
2022/05/14 07:17:41;;;;;;;13.35;2.97;;;14.00;99.90;;;;;;4825548;29;20057;-75
2022/05/14 07:20:08;;;;;;;13.18;3.30;;;14.00;99.90;;;;;;4808796;29;20137;-75
2022/05/14 07:22:34;;;;;;;10.57;2.90;;;14.10;99.90;;;;;;4808045;29;20455;-74
2022/05/14 07:25:00;;;;;;;16.27;3.03;;;14.20;99.90;;;;;;4824323;29;20147;-76
2022/05/14 07:27:25;;;;;;;9.02;2.28;;;14.20;99.90;;;;;;4824526;29;20054;-74
2022/05/14 07:29:51;;;;;;;9.95;2.47;;;14.30;99.90;;;;;;4824354;29;20050;-75
2022/05/14 07:32:19;;;;;;;8.38;2.30;;;14.30;99.90;;;;;;4822579;29;20054;-75
2022/05/14 07:34:45;;;;;;;9.13;2.20;;;14.40;99.90;;;;;;4823418;29;20047;-74
2022/05/14 07:37:22;;;;;;;8.73;2.00;;;14.40;99.90;;;;;;4822495;29;20046;-73
2022/05/14 07:40:07;;;;;;;10.93;2.47;;;14.50;99.90;;;;;;4824525;29;20117;-74
2022/05/14 07:42:45;;;;;;;9.82;1.92;;;14.50;99.90;;;;;;4823762;29;20087;-76
2022/05/14 07:45:16;;;;;;;9.85;2.40;;;14.50;99.90;;;;;;4822028;29;20073;-75
2022/05/14 07:47:41;;;;;;;9.10;2.08;;;14.60;99.90;;;;;;4822996;29;20055;-74
2022/05/14 07:50:08;;;;;;;9.95;1.83;;;14.70;99.90;;;;;;4823908;29;20054;-74
2022/05/14 07:52:35;;;;;;;10.57;2.33;;;14.70;99.90;;;;;;4807141;29;20092;-74
2022/05/14 07:55:01;;;;;;;8.43;1.75;;;14.70;99.90;;;;;;4824102;29;20210;-75
2022/05/14 07:57:27;;;;;;;9.95;1.85;;;14.80;99.90;;;;;;4824041;29;20062;-74
2022/05/14 07:59:53;;;;;;;9.10;2.05;;;14.80;99.90;;;;;;4823413;29;20062;-75
2022/05/14 08:02:34;;;;;;;6.05;1.65;;;14.80;99.90;;;;;;4824114;29;20097;-75
2022/05/14 08:05:04;;;;;;;12.98;2.30;;;14.80;99.90;;;;;;4823609;29;20480;-75
2022/05/14 08:07:31;;;;;;;7.90;2.08;;;14.90;99.90;;;;;;4823790;29;20054;-75
2022/05/14 08:09:58;;;;;;;7.57;2.03;;;14.90;99.90;;;;;;4824015;29;20137;-76
2022/05/14 08:12:24;;;;;;;14.60;2.63;;;14.90;99.90;;;;;;4823561;29;20513;-75
2022/05/14 08:14:50;;;;;;;12.85;2.40;;;15.00;99.90;;;;;;4824153;29;20091;-76
2022/05/14 08:17:16;;;;;;;13.38;2.28;;;15.00;99.90;;;;;;4823571;29;20470;-73
2022/05/14 08:19:41;;;;;;;11.82;2.40;;;15.10;99.90;;;;;;4823770;29;20440;-73
2022/05/14 08:24:59;;;;;;;11.02;2.58;;;15.10;99.90;;;;;;4826158;29;20054;-73
2022/05/14 08:27:25;;;;;;;11.23;2.15;;;15.20;99.90;;;;;;4827449;29;20536;-75
2022/05/14 08:29:50;;;;;;;7.82;2.20;;;15.20;99.90;;;;;;4826635;29;20076;-74
2022/05/14 08:32:21;;;;;;;10.50;2.22;;;15.20;99.90;;;;;;4827309;29;20531;-73
2022/05/14 08:34:49;;;;;;;9.75;2.15;;;15.30;99.90;;;;;;4826778;29;20054;-73
2022/05/14 08:37:14;;;;;;;10.32;2.63;;;15.40;99.90;;;;;;4826754;29;20054;-73
2022/05/14 08:39:40;;;;;;;10.63;2.30;;;15.40;99.90;;;;;;4825800;29;20077;-73
2022/05/14 08:42:11;;;;;;;9.93;2.35;;;15.50;99.90;;;;;;4810878;29;20046;-72
2022/05/14 08:44:40;;;;;;;10.95;2.72;;;15.60;99.90;;;;;;4827176;29;20070;-72
2022/05/14 08:47:22;;;;;;;10.75;2.42;;;15.70;99.90;;;;;;4826474;29;20472;-75
2022/05/14 08:49:50;;;;;;;10.38;2.58;;;15.70;99.90;;;;;;4826068;29;20199;-72
2022/05/14 08:52:21;;;;;;;11.88;2.67;;;15.50;99.90;;;;;;4826286;29;20087;-73
2022/05/14 08:54:47;;;;;;;9.68;2.85;;;15.90;99.90;;;;;;4825593;29;20071;-73
2022/05/14 08:57:43;;;;;;;12.13;2.05;;;16.00;99.90;;;;;;4826193;29;20507;-73
2022/05/14 09:00:10;;;;;;;10.75;2.20;;;16.00;99.90;;;;;;4825318;29;20062;-75
2022/05/14 09:02:42;;;;;;;10.43;2.30;;;16.00;99.90;;;;;;4826534;29;20058;-74
2022/05/14 09:05:16;;;;;;;10.70;2.65;;;16.10;99.90;;;;;;4826770;29;20106;-73
2022/05/14 09:07:43;;;;;;;9.73;1.98;;;16.20;99.90;;;;;;4826621;29;20065;-73
2022/05/14 09:10:25;;;;;;;9.95;2.38;;;16.30;99.90;;;;;;4826761;29;20472;-75
2022/05/14 09:12:58;;;;;;;7.43;1.90;;;16.40;99.90;;;;;;4825791;29;20054;-74
2022/05/14 09:15:28;;;;;;;7.63;1.75;;;16.40;99.90;;;;;;4826731;29;20407;-75
2022/05/14 09:18:18;;;;;;;9.55;2.03;;;16.60;99.90;;;;;;4825546;29;20380;-75
2022/05/14 09:20:49;;;;;;;8.35;1.90;;;16.60;99.90;;;;;;4826720;29;20090;-76
2022/05/14 09:23:37;;;;;;;8.52;2.47;;;16.70;99.90;;;;;;4826063;29;20093;-75
2022/05/14 09:26:17;;;;;;;10.50;2.17;;;16.70;99.90;;;;;;4826642;29;20054;-77
2022/05/14 09:28:49;;;;;;;10.30;2.40;;;16.80;99.90;;;;;;4826283;29;20496;-81
2022/05/14 09:31:32;;;;;;;14.38;2.53;;;16.90;99.90;;;;;;4826345;29;20095;-78
2022/05/14 09:34:11;;;;;;;13.82;2.10;;;16.90;99.90;;;;;;4826047;29;20551;-78
2022/05/14 09:36:37;;;;;;;12.27;2.40;;;17.00;99.90;;;;;;4826249;29;20062;-82
2022/05/14 09:39:10;;;;;;;9.15;2.20;;;17.00;99.90;;;;;;4826345;29;20058;-83
2022/05/14 09:41:42;;;;;;;10.68;2.05;;;17.00;99.90;;;;;;4826249;29;20058;-86
2022/05/14 09:44:24;;;;;;;13.17;2.50;;;17.00;99.90;;;;;;4826290;29;20062;-81
2022/05/14 09:46:52;;;;;;;9.75;2.28;;;17.00;99.90;;;;;;4827115;29;20061;-83
2022/05/14 09:49:26;;;;;;;10.07;2.13;;;17.00;99.90;;;;;;4826220;29;20057;-81
2022/05/14 09:52:07;;;;;;;11.68;2.40;;;17.00;99.90;;;;;;4826699;29;20050;-83
2022/05/14 09:54:43;;;;;;;9.40;2.40;;;17.00;99.90;;;;;;4826074;29;20395;-77
2022/05/14 09:57:12;;;;;;;15.15;2.45;;;17.10;99.90;;;;;;4826609;29;20050;-73
2022/05/14 09:59:37;;;;;;;13.07;2.30;;;17.20;99.90;;;;;;4823958;29;20053;-73
2022/05/14 10:02:16;;;;;;;11.73;2.80;;;17.20;99.90;;;;;;4824869;29;20050;-73
2022/05/14 10:04:56;;;;;;;11.60;2.88;;;17.20;99.90;;;;;;4825815;29;20086;-75
2022/05/14 10:08:02;;;;;;;9.23;3.10;;;17.20;99.90;;;;;;4825376;29;20054;-74
2022/05/14 10:10:44;;;;;;;13.73;2.15;;;17.30;99.90;;;;;;4825861;29;20060;-75
2022/05/14 10:13:46;;;;;;;10.43;2.20;;;17.40;99.90;;;;;;4825830;29;20090;-73
2022/05/14 10:16:34;;;;;;;9.98;2.60;;;17.50;99.90;;;;;;4824023;29;20137;-76
2022/05/14 10:19:35;;;;;;;9.80;2.72;;;17.60;99.90;;;;;;4805852;29;20058;-76
2022/05/14 10:22:11;;;;;;;10.48;2.38;;;17.70;98.70;;;;;;4825848;29;20057;-76
2022/05/14 10:28:47;;;;;;;10.65;1.98;;;17.90;99.40;;;;;;4824877;29;20096;-77
2022/05/14 10:31:43;;;;;;;10.52;2.33;;;17.90;97.30;;;;;;4810328;29;20419;-73
2022/05/14 10:34:16;;;;;;;9.73;2.67;;;18.00;95.30;;;;;;4825596;29;20110;-77
2022/05/14 10:37:00;;;;;;;10.13;2.92;;;17.90;97.70;;;;;;4825586;29;20046;-79
2022/05/14 10:39:48;;;;;;;9.27;2.15;;;17.80;97.40;;;;;;4825508;29;20046;-85
2022/05/14 10:42:45;;;;;;;12.75;2.53;;;17.60;98.00;;;;;;4823922;29;20058;-73
2022/05/14 10:45:17;;;;;;;9.52;2.42;;;17.60;98.00;;;;;;4824863;29;20054;-73
2022/05/14 10:47:46;;;;;;;10.13;2.17;;;17.60;98.70;;;;;;4825272;29;20058;-73
2022/05/14 10:50:20;;;;;;;10.85;2.92;;;17.70;98.30;;;;;;4825365;29;20190;-74
2022/05/14 10:52:48;;;;;;;13.38;2.70;;;17.70;98.40;;;;;;4825284;29;20061;-75
2022/05/14 10:55:17;;;;;;;8.65;2.05;;;17.80;98.00;;;;;;4825322;29;20050;-73
2022/05/14 10:57:48;;;;;;;10.13;2.30;;;17.90;97.30;;;;;;4824099;29;20065;-73
2022/05/14 11:00:28;;;;;;;9.73;2.50;;;18.00;97.50;;;;;;4825284;29;20059;-71
2022/05/14 11:02:59;;;;;;;11.43;2.85;;;18.10;97.00;;;;;;4825227;29;20076;-72
2022/05/14 11:05:48;;;;;;;11.75;2.30;;;18.20;96.60;;;;;;4825712;29;20050;-71
2022/05/14 11:08:26;;;;;;;9.93;2.17;;;18.40;96.00;;;;;;4825958;29;20053;-73
2022/05/14 11:11:02;;;;;;;9.00;2.08;;;18.50;95.90;;;;;;4824078;29;20145;-72
2022/05/14 11:13:28;;;;;;;8.07;1.90;;;18.70;94.80;;;;;;4824730;29;20050;-72
2022/05/14 11:16:13;;;;;;;15.02;3.47;;;18.80;95.40;;;;;;4825027;29;20115;-72
2022/05/14 11:18:54;;;;;;;8.38;2.28;;;18.90;93.60;;;;;;4825805;29;20423;-71
2022/05/14 11:21:42;;;;;;;12.32;2.63;;;19.00;93.30;;;;;;4824896;29;20050;-74
2022/05/14 11:24:11;;;;;;;10.77;2.60;;;19.00;92.80;;;;;;4825439;29;20058;-74
2022/05/14 11:26:47;;;;;;;9.43;2.35;;;18.90;92.00;;;;;;4824903;29;20057;-72
2022/05/14 11:29:26;;;;;;;9.70;2.15;;;18.80;91.60;;;;;;4825348;29;20396;-72
2022/05/14 11:32:01;;;;;;;16.27;3.00;;;18.60;92.00;;;;;;4824819;29;20057;-72
2022/05/14 11:34:27;;;;;;;8.02;2.60;;;18.50;92.10;;;;;;4825068;29;20050;-71
2022/05/14 11:36:59;;;;;;;9.00;2.53;;;18.50;92.20;;;;;;4825259;29;20388;-72
2022/05/14 11:39:29;;;;;;;10.90;2.47;;;18.50;92.00;;;;;;4823602;29;20058;-73
2022/05/14 11:42:07;;;;;;;13.27;2.60;;;18.50;92.40;;;;;;4825535;29;20050;-70
2022/05/14 11:44:38;;;;;;;12.48;2.65;;;18.50;91.30;;;;;;4825156;29;20059;-72
2022/05/14 11:47:21;;;;;;;14.30;2.63;;;18.40;91.40;;;;;;4824721;29;20054;-72
2022/05/14 11:49:48;;;;;;;16.50;2.80;;;18.40;91.80;;;;;;4824508;29;20050;-71
2022/05/14 11:52:43;;;;;;;10.95;2.15;;;18.40;92.00;;;;;;4823891;29;20054;-72
2022/05/14 11:55:18;;;;;;;14.00;2.78;;;18.40;91.80;;;;;;4818447;29;20062;-72
2022/05/14 11:58:01;;;;;;;10.20;2.50;;;18.40;91.50;;;;;;4823554;29;20050;-73
2022/05/14 12:00:30;;;;;;;12.48;3.10;;;18.30;91.60;;;;;;4828882;29;20129;-72
2022/05/14 12:03:07;;;;;;;11.43;2.22;;;18.30;91.70;;;;;;4828000;29;20046;-73
2022/05/14 12:05:37;;;;;;;8.20;2.40;;;18.40;92.10;;;;;;4827053;29;20054;-73
2022/05/14 12:08:38;;;;;;;13.30;3.03;;;18.30;91.80;;;;;;4826788;29;20055;-73
2022/05/14 12:11:16;;;;;;;9.05;2.53;;;18.30;92.20;;;;;;4807438;29;20190;-73
2022/05/14 12:14:04;;;;;;;14.32;2.53;;;18.40;92.30;;;;;;4824933;29;20066;-74
2022/05/14 12:16:40;;;;;;;12.55;2.90;;;18.50;90.50;;;;;;4827907;29;20064;-74
2022/05/14 12:19:13;;;;;;;13.30;2.80;;;18.50;91.20;;;;;;4828001;29;20115;-72
2022/05/14 12:21:39;;;;;;;10.15;2.03;;;18.40;91.10;;;;;;4826595;29;20058;-71
2022/05/14 12:24:16;;;;;;;12.95;2.88;;;18.40;90.50;;;;;;4827634;29;20130;-67
2022/05/14 12:26:44;;;;;;;8.90;2.03;;;18.40;90.30;;;;;;4828067;29;20047;-72
2022/05/14 12:29:21;;;;;;;10.55;2.33;;;18.40;89.90;;;;;;4827421;29;20046;-72
2022/05/14 12:34:45;;;;;;;8.77;2.05;;;18.50;90.30;;;;;;4827797;29;20141;-73
2022/05/14 12:37:25;;;;;;;11.50;2.67;;;18.60;90.40;;;;;;4827380;29;20062;-72
2022/05/14 12:39:55;;;;;;;11.70;2.40;;;18.70;89.00;;;;;;4826700;29;20061;-73
2022/05/14 12:42:30;;;;;;;12.45;2.63;;;18.70;88.90;;;;;;4827231;29;20104;-71
2022/05/14 12:44:57;;;;;;;17.10;3.05;;;18.70;89.40;;;;;;4827481;29;20054;-74
2022/05/14 12:47:29;;;;;;;12.95;2.67;;;18.60;89.60;;;;;;4827124;29;20140;-73
2022/05/14 12:49:55;;;;;;;11.32;2.42;;;18.50;90.30;;;;;;4827292;29;20053;-73
2022/05/14 12:52:32;;;;;;;9.18;2.22;;;18.60;90.70;;;;;;4826007;29;20050;-73
2022/05/14 12:55:06;;;;;;;12.68;2.42;;;18.50;90.70;;;;;;4827686;29;20179;-73
2022/05/14 12:57:36;;;;;;;13.23;2.75;;;18.50;90.10;;;;;;4827069;29;20158;-73
2022/05/14 13:00:03;;;;;;;12.25;2.33;;;18.50;90.20;;;;;;4827108;29;20058;-72
2022/05/14 13:02:38;;;;;;;13.02;2.60;;;18.50;90.40;;;;;;4827008;29;20069;-72
2022/05/14 13:05:10;;;;;;;9.48;2.30;;;18.50;90.60;;;;;;4827527;29;20388;-73
2022/05/14 13:07:45;;;;;;;12.25;2.42;;;18.70;90.60;;;;;;4827430;29;20050;-72
2022/05/14 13:10:11;;;;;;;11.35;2.58;;;18.80;90.00;;;;;;4827379;29;20062;-72
2022/05/14 13:12:37;;;;;;;13.25;2.58;;;18.80;90.50;;;;;;4826653;29;20046;-73
2022/05/14 13:15:06;;;;;;;12.45;2.78;;;18.90;90.40;;;;;;4827275;29;20085;-72
2022/05/14 13:17:36;;;;;;;13.90;2.95;;;18.90;90.40;;;;;;4827267;29;20128;-72
2022/05/14 13:20:15;;;;;;;9.02;2.63;;;18.90;90.00;;;;;;4826999;29;20061;-73
2022/05/14 13:22:42;;;;;;;12.10;2.92;;;18.90;90.10;;;;;;4827231;29;20057;-72